sensor_id;sensor_type;location;lat;lon;timestamp;pressure;altitude;pressure_sealevel;temperature;humidity
21956;BME280;11142;49.930;8.606;2022-08-19T00:01:46;99700.81;;;22.38;74.93
21956;BME280;11142;49.930;8.606;2022-08-19T00:04:22;99700.88;;;22.59;73.92
21956;BME280;11142;49.930;8.606;2022-08-19T00:06:51;99692.78;;;22.46;73.53
21956;BME280;11142;49.930;8.606;2022-08-19T00:09:21;99688.03;;;22.56;73.22
21956;BME280;11142;49.930;8.606;2022-08-19T00:11:53;99695.22;;;22.33;73.53
21956;BME280;11142;49.930;8.606;2022-08-19T00:14:23;99696.25;;;22.47;72.90
21956;BME280;11142;49.930;8.606;2022-08-19T00:16:52;99693.13;;;22.58;71.89
21956;BME280;11142;49.930;8.606;2022-08-19T00:19:21;99691.88;;;22.54;72.91
21956;BME280;11142;49.930;8.606;2022-08-19T00:21:50;99692.69;;;22.54;72.34
21956;BME280;11142;49.930;8.606;2022-08-19T00:24:19;99684.28;;;22.36;72.96
21956;BME280;11142;49.930;8.606;2022-08-19T00:26:47;99674.59;;;22.58;72.25
21956;BME280;11142;49.930;8.606;2022-08-19T00:29:19;99672.88;;;22.36;73.07
21956;BME280;11142;49.930;8.606;2022-08-19T00:31:48;99676.28;;;22.44;72.92
21956;BME280;11142;49.930;8.606;2022-08-19T00:34:19;99658.56;;;22.01;74.66
21956;BME280;11142;49.930;8.606;2022-08-19T00:36:48;99655.78;;;21.80;75.64
21956;BME280;11142;49.930;8.606;2022-08-19T00:39:17;99660.94;;;21.73;76.30
21956;BME280;11142;49.930;8.606;2022-08-19T00:41:47;99667.16;;;21.80;76.03
21956;BME280;11142;49.930;8.606;2022-08-19T00:44:19;99660.31;;;21.94;75.75
21956;BME280;11142;49.930;8.606;2022-08-19T00:46:54;99663.50;;;22.04;75.37
21956;BME280;11142;49.930;8.606;2022-08-19T00:49:28;99655.50;;;21.97;75.59
21956;BME280;11142;49.930;8.606;2022-08-19T00:51:58;99640.91;;;21.64;77.90
21956;BME280;11142;49.930;8.606;2022-08-19T00:54:28;99647.06;;;21.56;79.10
21956;BME280;11142;49.930;8.606;2022-08-19T00:56:58;99639.13;;;21.56;79.29
21956;BME280;11142;49.930;8.606;2022-08-19T00:59:29;99629.25;;;21.58;79.62
21956;BME280;11142;49.930;8.606;2022-08-19T01:02:17;99624.94;;;21.57;79.80
21956;BME280;11142;49.930;8.606;2022-08-19T01:04:46;99620.16;;;21.38;81.23
21956;BME280;11142;49.930;8.606;2022-08-19T01:07:14;99624.25;;;21.41;81.49
21956;BME280;11142;49.930;8.606;2022-08-19T01:09:45;99635.81;;;21.77;79.96
21956;BME280;11142;49.930;8.606;2022-08-19T01:12:14;99638.72;;;21.67;80.30
21956;BME280;11142;49.930;8.606;2022-08-19T01:14:44;99643.03;;;21.83;79.14
21956;BME280;11142;49.930;8.606;2022-08-19T01:17:13;99649.31;;;22.19;77.51
21956;BME280;11142;49.930;8.606;2022-08-19T01:19:43;99639.06;;;22.02;76.77
21956;BME280;11142;49.930;8.606;2022-08-19T01:22:16;99635.25;;;21.90;77.87
21956;BME280;11142;49.930;8.606;2022-08-19T01:24:58;99635.56;;;21.87;77.83
21956;BME280;11142;49.930;8.606;2022-08-19T01:27:26;99633.34;;;21.76;77.38
21956;BME280;11142;49.930;8.606;2022-08-19T01:30:12;99631.47;;;21.84;77.02
21956;BME280;11142;49.930;8.606;2022-08-19T01:32:40;99636.66;;;21.78;76.34
21956;BME280;11142;49.930;8.606;2022-08-19T01:35:11;99632.59;;;22.04;75.39
21956;BME280;11142;49.930;8.606;2022-08-19T01:37:44;99633.97;;;22.30;74.62
21956;BME280;11142;49.930;8.606;2022-08-19T01:40:14;99645.00;;;22.48;73.71
21956;BME280;11142;49.930;8.606;2022-08-19T01:42:43;99643.44;;;22.53;73.24
21956;BME280;11142;49.930;8.606;2022-08-19T01:45:10;99636.34;;;22.24;73.68
21956;BME280;11142;49.930;8.606;2022-08-19T01:47:39;99638.63;;;22.13;74.93
21956;BME280;11142;49.930;8.606;2022-08-19T01:50:09;99641.81;;;22.23;74.59
21956;BME280;11142;49.930;8.606;2022-08-19T01:52:39;99645.53;;;22.43;73.27
21956;BME280;11142;49.930;8.606;2022-08-19T01:55:10;99647.72;;;22.40;73.26
21956;BME280;11142;49.930;8.606;2022-08-19T01:57:42;99647.53;;;22.56;72.71
21956;BME280;11142;49.930;8.606;2022-08-19T02:00:14;99652.47;;;22.44;72.96
21956;BME280;11142;49.930;8.606;2022-08-19T02:02:42;99659.09;;;22.55;71.97
21956;BME280;11142;49.930;8.606;2022-08-19T02:05:11;99648.81;;;22.01;73.38
21956;BME280;11142;49.930;8.606;2022-08-19T02:07:40;99649.97;;;21.84;74.47
21956;BME280;11142;49.930;8.606;2022-08-19T02:10:12;99639.47;;;21.76;75.19
21956;BME280;11142;49.930;8.606;2022-08-19T02:12:44;99650.09;;;21.91;74.46
21956;BME280;11142;49.930;8.606;2022-08-19T02:15:13;99657.44;;;21.81;74.75
21956;BME280;11142;49.930;8.606;2022-08-19T02:17:41;99664.63;;;21.72;74.68
21956;BME280;11142;49.930;8.606;2022-08-19T02:20:10;99652.66;;;22.13;73.29
21956;BME280;11142;49.930;8.606;2022-08-19T02:22:40;99661.88;;;22.47;72.08
21956;BME280;11142;49.930;8.606;2022-08-19T02:25:09;99657.47;;;22.68;71.33
21956;BME280;11142;49.930;8.606;2022-08-19T02:27:38;99657.13;;;22.71;70.82
21956;BME280;11142;49.930;8.606;2022-08-19T02:30:12;99656.75;;;22.45;71.43
21956;BME280;11142;49.930;8.606;2022-08-19T02:32:42;99658.78;;;22.29;72.09
21956;BME280;11142;49.930;8.606;2022-08-19T02:35:21;99668.06;;;22.54;71.22
21956;BME280;11142;49.930;8.606;2022-08-19T02:37:50;99671.78;;;22.74;70.47
21956;BME280;11142;49.930;8.606;2022-08-19T02:40:51;99666.09;;;22.92;69.79
21956;BME280;11142;49.930;8.606;2022-08-19T02:43:21;99659.75;;;22.86;70.61
21956;BME280;11142;49.930;8.606;2022-08-19T02:45:51;99651.97;;;22.85;70.32
21956;BME280;11142;49.930;8.606;2022-08-19T02:48:20;99654.25;;;22.88;70.57
21956;BME280;11142;49.930;8.606;2022-08-19T02:50:51;99664.28;;;22.92;70.16
21956;BME280;11142;49.930;8.606;2022-08-19T02:53:23;99669.22;;;22.95;70.06
21956;BME280;11142;49.930;8.606;2022-08-19T02:55:52;99671.66;;;22.97;70.13
21956;BME280;11142;49.930;8.606;2022-08-19T02:58:21;99659.88;;;22.99;69.44
21956;BME280;11142;49.930;8.606;2022-08-19T03:00:54;99663.53;;;22.98;69.60
21956;BME280;11142;49.930;8.606;2022-08-19T03:03:23;99663.00;;;22.88;70.22
21956;BME280;11142;49.930;8.606;2022-08-19T03:05:51;99657.31;;;22.70;71.17
21956;BME280;11142;49.930;8.606;2022-08-19T03:08:23;99668.88;;;22.54;71.94
21956;BME280;11142;49.930;8.606;2022-08-19T03:10:52;99664.69;;;22.45;72.17
21956;BME280;11142;49.930;8.606;2022-08-19T03:13:21;99662.25;;;22.29;73.03
21956;BME280;11142;49.930;8.606;2022-08-19T03:15:52;99664.25;;;22.12;73.16
21956;BME280;11142;49.930;8.606;2022-08-19T03:18:20;99661.03;;;22.02;73.58
21956;BME280;11142;49.930;8.606;2022-08-19T03:20:50;99661.31;;;22.07;73.04
21956;BME280;11142;49.930;8.606;2022-08-19T03:23:21;99663.88;;;22.15;72.52
21956;BME280;11142;49.930;8.606;2022-08-19T03:25:51;99672.72;;;22.22;71.98
21956;BME280;11142;49.930;8.606;2022-08-19T03:28:29;99665.53;;;22.31;71.62
21956;BME280;11142;49.930;8.606;2022-08-19T03:31:02;99673.63;;;22.30;71.67
21956;BME280;11142;49.930;8.606;2022-08-19T03:33:51;99676.00;;;22.10;72.88
21956;BME280;11142;49.930;8.606;2022-08-19T03:36:22;99665.13;;;21.67;74.73
21956;BME280;11142;49.930;8.606;2022-08-19T03:38:54;99664.88;;;21.77;74.94
21956;BME280;11142;49.930;8.606;2022-08-19T03:41:27;99669.53;;;21.75;74.93
21956;BME280;11142;49.930;8.606;2022-08-19T03:44:10;99669.44;;;21.68;75.08
21956;BME280;11142;49.930;8.606;2022-08-19T03:46:45;99672.44;;;21.65;74.98
21956;BME280;11142;49.930;8.606;2022-08-19T03:49:15;99668.34;;;21.40;76.02
21956;BME280;11142;49.930;8.606;2022-08-19T03:51:45;99663.19;;;21.24;76.54
21956;BME280;11142;49.930;8.606;2022-08-19T03:54:16;99675.94;;;21.35;76.55
21956;BME280;11142;49.930;8.606;2022-08-19T03:56:47;99678.50;;;21.66;75.22
21956;BME280;11142;49.930;8.606;2022-08-19T03:59:18;99685.44;;;21.90;74.08
21956;BME280;11142;49.930;8.606;2022-08-19T04:01:48;99687.19;;;21.97;73.07
21956;BME280;11142;49.930;8.606;2022-08-19T04:04:17;99692.75;;;22.02;72.90
21956;BME280;11142;49.930;8.606;2022-08-19T04:06:45;99684.47;;;22.05;72.96
21956;BME280;11142;49.930;8.606;2022-08-19T04:09:14;99689.47;;;22.00;73.06
21956;BME280;11142;49.930;8.606;2022-08-19T04:11:44;99693.22;;;21.91;73.76
21956;BME280;11142;49.930;8.606;2022-08-19T04:14:16;99689.84;;;21.75;74.27
21956;BME280;11142;49.930;8.606;2022-08-19T04:16:44;99689.88;;;21.52;75.81
21956;BME280;11142;49.930;8.606;2022-08-19T04:19:15;99689.09;;;21.21;77.06
21956;BME280;11142;49.930;8.606;2022-08-19T04:21:45;99687.56;;;20.95;78.44
21956;BME280;11142;49.930;8.606;2022-08-19T04:24:14;99696.41;;;20.72;79.63
21956;BME280;11142;49.930;8.606;2022-08-19T04:26:43;99689.72;;;20.61;80.33
21956;BME280;11142;49.930;8.606;2022-08-19T04:29:13;99693.72;;;20.41;81.36
21956;BME280;11142;49.930;8.606;2022-08-19T04:31:43;99687.34;;;20.35;81.97
21956;BME280;11142;49.930;8.606;2022-08-19T04:34:15;99690.47;;;20.39;82.00
21956;BME280;11142;49.930;8.606;2022-08-19T04:36:44;99684.16;;;20.48;81.67
21956;BME280;11142;49.930;8.606;2022-08-19T04:39:14;99691.53;;;20.52;81.55
21956;BME280;11142;49.930;8.606;2022-08-19T04:41:43;99690.38;;;20.55;81.63
21956;BME280;11142;49.930;8.606;2022-08-19T04:44:30;99686.56;;;20.65;81.35
21956;BME280;11142;49.930;8.606;2022-08-19T04:46:59;99680.84;;;20.46;82.44
21956;BME280;11142;49.930;8.606;2022-08-19T04:49:38;99693.44;;;20.28;83.83
21956;BME280;11142;49.930;8.606;2022-08-19T04:52:06;99689.28;;;20.33;83.70
21956;BME280;11142;49.930;8.606;2022-08-19T04:54:36;99695.25;;;20.11;84.96
21956;BME280;11142;49.930;8.606;2022-08-19T04:57:07;99693.81;;;20.00;86.00
21956;BME280;11142;49.930;8.606;2022-08-19T04:59:38;99694.63;;;19.93;86.74
21956;BME280;11142;49.930;8.606;2022-08-19T05:02:08;99694.81;;;19.91;87.03
21956;BME280;11142;49.930;8.606;2022-08-19T05:04:38;99698.09;;;19.93;86.99
21956;BME280;11142;49.930;8.606;2022-08-19T05:07:07;99697.56;;;19.98;87.11
21956;BME280;11142;49.930;8.606;2022-08-19T05:09:36;99691.47;;;20.13;86.01
21956;BME280;11142;49.930;8.606;2022-08-19T05:12:24;99697.34;;;20.24;85.62
21956;BME280;11142;49.930;8.606;2022-08-19T05:14:55;99698.63;;;20.52;83.70
21956;BME280;11142;49.930;8.606;2022-08-19T05:17:24;99701.53;;;21.04;82.07
21956;BME280;11142;49.930;8.606;2022-08-19T05:19:58;99707.44;;;21.14;80.32
21956;BME280;11142;49.930;8.606;2022-08-19T05:22:45;99705.78;;;21.13;80.50
21956;BME280;11142;49.930;8.606;2022-08-19T05:25:16;99707.38;;;20.91;81.49
21956;BME280;11142;49.930;8.606;2022-08-19T05:27:45;99703.34;;;21.03;80.68
21956;BME280;11142;49.930;8.606;2022-08-19T05:30:13;99702.53;;;21.11;80.65
21956;BME280;11142;49.930;8.606;2022-08-19T05:32:42;99700.91;;;21.55;78.60
21956;BME280;11142;49.930;8.606;2022-08-19T05:35:12;99708.78;;;22.01;76.11
21956;BME280;11142;49.930;8.606;2022-08-19T05:37:40;99714.41;;;22.35;75.46
21956;BME280;11142;49.930;8.606;2022-08-19T05:40:09;99711.94;;;22.92;72.42
21956;BME280;11142;49.930;8.606;2022-08-19T05:42:38;99718.25;;;22.77;72.81
21956;BME280;11142;49.930;8.606;2022-08-19T05:45:07;99714.09;;;23.24;70.97
21956;BME280;11142;49.930;8.606;2022-08-19T05:47:35;99717.88;;;23.51;69.09
21956;BME280;11142;49.930;8.606;2022-08-19T05:50:08;99720.38;;;22.14;73.90
21956;BME280;11142;49.930;8.606;2022-08-19T05:52:38;99721.31;;;22.07;75.21
21956;BME280;11142;49.930;8.606;2022-08-19T05:55:15;99730.72;;;22.68;72.54
21956;BME280;11142;49.930;8.606;2022-08-19T05:57:44;99731.44;;;22.33;73.19
21956;BME280;11142;49.930;8.606;2022-08-19T06:00:12;99733.91;;;22.49;73.00
21956;BME280;11142;49.930;8.606;2022-08-19T06:02:41;99737.38;;;22.49;72.90
21956;BME280;11142;49.930;8.606;2022-08-19T06:05:10;99743.38;;;22.43;73.01
21956;BME280;11142;49.930;8.606;2022-08-19T06:07:40;99753.91;;;22.81;72.33
21956;BME280;11142;49.930;8.606;2022-08-19T06:10:10;99765.19;;;23.54;69.74
21956;BME280;11142;49.930;8.606;2022-08-19T06:12:39;99762.84;;;24.08;67.76
21956;BME280;11142;49.930;8.606;2022-08-19T06:15:09;99773.81;;;24.05;66.61
21956;BME280;11142;49.930;8.606;2022-08-19T06:17:37;99763.91;;;23.50;68.18
21956;BME280;11142;49.930;8.606;2022-08-19T06:20:07;99774.47;;;23.86;68.45
21956;BME280;11142;49.930;8.606;2022-08-19T06:22:41;99774.91;;;24.32;65.16
21956;BME280;11142;49.930;8.606;2022-08-19T06:25:11;99785.69;;;25.33;62.16
21956;BME280;11142;49.930;8.606;2022-08-19T06:27:39;99785.00;;;25.85;59.86
21956;BME280;11142;49.930;8.606;2022-08-19T06:30:28;99784.56;;;25.08;62.04
21956;BME280;11142;49.930;8.606;2022-08-19T06:32:56;99789.50;;;25.24;62.42
21956;BME280;11142;49.930;8.606;2022-08-19T06:35:24;99796.88;;;26.35;59.09
21956;BME280;11142;49.930;8.606;2022-08-19T06:37:55;99807.69;;;25.95;59.25
21956;BME280;11142;49.930;8.606;2022-08-19T06:40:23;99818.53;;;26.98;56.02
21956;BME280;11142;49.930;8.606;2022-08-19T06:42:52;99808.16;;;27.72;53.21
21956;BME280;11142;49.930;8.606;2022-08-19T06:45:23;99804.66;;;28.34;51.51
21956;BME280;11142;49.930;8.606;2022-08-19T06:48:02;99803.31;;;29.23;48.85
21956;BME280;11142;49.930;8.606;2022-08-19T06:50:30;99806.53;;;29.61;48.05
21956;BME280;11142;49.930;8.606;2022-08-19T06:53:00;99825.72;;;29.58;47.45
21956;BME280;11142;49.930;8.606;2022-08-19T06:55:30;99812.03;;;28.32;49.54
21956;BME280;11142;49.930;8.606;2022-08-19T06:58:01;99814.81;;;28.19;50.15
21956;BME280;11142;49.930;8.606;2022-08-19T07:00:30;99808.78;;;27.74;51.39
21956;BME280;11142;49.930;8.606;2022-08-19T07:02:58;99809.84;;;27.98;51.46
21956;BME280;11142;49.930;8.606;2022-08-19T07:05:38;99806.56;;;27.20;52.55
21956;BME280;11142;49.930;8.606;2022-08-19T07:08:13;99808.94;;;26.64;54.90
21956;BME280;11142;49.930;8.606;2022-08-19T07:10:45;99812.16;;;27.57;52.74
21956;BME280;11142;49.930;8.606;2022-08-19T07:13:14;99821.28;;;28.55;49.29
21956;BME280;11142;49.930;8.606;2022-08-19T07:15:43;99822.13;;;27.23;52.87
21956;BME280;11142;49.930;8.606;2022-08-19T07:18:12;99827.56;;;26.58;55.36
21956;BME280;11142;49.930;8.606;2022-08-19T07:20:41;99815.91;;;26.65;54.28
21956;BME280;11142;49.930;8.606;2022-08-19T07:23:09;99815.09;;;27.80;51.87
21956;BME280;11142;49.930;8.606;2022-08-19T07:25:44;99821.63;;;26.69;53.78
21956;BME280;11142;49.930;8.606;2022-08-19T07:28:18;99810.16;;;26.68;54.51
21956;BME280;11142;49.930;8.606;2022-08-19T07:30:51;99815.03;;;25.73;57.21
21956;BME280;11142;49.930;8.606;2022-08-19T07:33:19;99811.03;;;25.36;58.85
21956;BME280;11142;49.930;8.606;2022-08-19T07:35:48;99811.00;;;24.89;60.98
21956;BME280;11142;49.930;8.606;2022-08-19T07:38:16;99807.75;;;25.41;59.32
21956;BME280;11142;49.930;8.606;2022-08-19T07:40:46;99811.13;;;25.56;58.85
21956;BME280;11142;49.930;8.606;2022-08-19T07:43:14;99810.41;;;26.27;56.21
21956;BME280;11142;49.930;8.606;2022-08-19T07:45:44;99804.09;;;26.35;55.28
21956;BME280;11142;49.930;8.606;2022-08-19T07:48:13;99797.28;;;26.06;55.73
21956;BME280;11142;49.930;8.606;2022-08-19T07:50:42;99814.28;;;26.58;53.50
21956;BME280;11142;49.930;8.606;2022-08-19T07:53:10;99825.41;;;27.70;50.14
21956;BME280;11142;49.930;8.606;2022-08-19T07:55:40;99826.09;;;28.71;47.95
21956;BME280;11142;49.930;8.606;2022-08-19T07:58:14;99811.84;;;27.78;49.12
21956;BME280;11142;49.930;8.606;2022-08-19T08:00:45;99818.81;;;26.37;54.05
21956;BME280;11142;49.930;8.606;2022-08-19T08:03:15;99816.06;;;25.24;56.91
21956;BME280;11142;49.930;8.606;2022-08-19T08:05:44;99821.00;;;26.80;53.73
21956;BME280;11142;49.930;8.606;2022-08-19T08:08:30;99818.44;;;28.31;48.83
21956;BME280;11142;49.930;8.606;2022-08-19T08:11:19;99821.19;;;30.41;44.03
21956;BME280;11142;49.930;8.606;2022-08-19T08:13:51;99818.56;;;32.84;38.30
21956;BME280;11142;49.930;8.606;2022-08-19T08:16:30;99808.94;;;30.80;41.65
21956;BME280;11142;49.930;8.606;2022-08-19T08:19:00;99812.59;;;28.41;46.09
21956;BME280;11142;49.930;8.606;2022-08-19T08:21:33;99809.88;;;27.09;49.83
21956;BME280;11142;49.930;8.606;2022-08-19T08:24:02;99807.91;;;25.80;53.23
21956;BME280;11142;49.930;8.606;2022-08-19T08:26:30;99810.72;;;25.72;54.04
21956;BME280;11142;49.930;8.606;2022-08-19T08:29:01;99805.81;;;25.75;54.63
21956;BME280;11142;49.930;8.606;2022-08-19T08:31:39;99818.72;;;25.65;53.96
21956;BME280;11142;49.930;8.606;2022-08-19T08:34:09;99818.63;;;25.46;55.40
21956;BME280;11142;49.930;8.606;2022-08-19T08:36:42;99810.94;;;25.16;55.80
21956;BME280;11142;49.930;8.606;2022-08-19T08:39:13;99818.28;;;25.55;55.05
21956;BME280;11142;49.930;8.606;2022-08-19T08:41:48;99812.47;;;26.25;52.50
21956;BME280;11142;49.930;8.606;2022-08-19T08:44:23;99815.44;;;27.01;50.60
21956;BME280;11142;49.930;8.606;2022-08-19T08:46:58;99823.88;;;28.43;46.44
21956;BME280;11142;49.930;8.606;2022-08-19T08:49:32;99822.47;;;28.16;45.71
21956;BME280;11142;49.930;8.606;2022-08-19T08:52:03;99824.50;;;27.82;47.16
21956;BME280;11142;49.930;8.606;2022-08-19T08:54:35;99810.81;;;27.72;47.00
21956;BME280;11142;49.930;8.606;2022-08-19T08:57:14;99805.88;;;25.95;52.20
21956;BME280;11142;49.930;8.606;2022-08-19T08:59:47;99813.00;;;25.75;52.67
21956;BME280;11142;49.930;8.606;2022-08-19T09:02:18;99803.44;;;26.53;51.08
21956;BME280;11142;49.930;8.606;2022-08-19T09:04:46;99812.56;;;27.54;48.89
21956;BME280;11142;49.930;8.606;2022-08-19T09:07:30;99803.44;;;26.53;52.02
21956;BME280;11142;49.930;8.606;2022-08-19T09:10:10;99802.16;;;25.70;54.46
21956;BME280;11142;49.930;8.606;2022-08-19T09:12:49;99809.47;;;25.55;55.86
21956;BME280;11142;49.930;8.606;2022-08-19T09:15:31;99808.38;;;25.43;55.01
21956;BME280;11142;49.930;8.606;2022-08-19T09:18:03;99799.72;;;26.01;53.64
21956;BME280;11142;49.930;8.606;2022-08-19T09:20:34;99806.09;;;26.46;52.02
21956;BME280;11142;49.930;8.606;2022-08-19T09:23:08;99805.25;;;26.72;50.90
21956;BME280;11142;49.930;8.606;2022-08-19T09:25:37;99806.69;;;26.68;51.00
21956;BME280;11142;49.930;8.606;2022-08-19T09:28:07;99808.59;;;27.18;50.40
21956;BME280;11142;49.930;8.606;2022-08-19T09:30:51;99808.94;;;26.64;52.19
21956;BME280;11142;49.930;8.606;2022-08-19T09:33:20;99816.50;;;26.02;54.14
21956;BME280;11142;49.930;8.606;2022-08-19T09:35:49;99817.16;;;26.23;53.01
21956;BME280;11142;49.930;8.606;2022-08-19T09:38:20;99810.59;;;26.52;52.79
21956;BME280;11142;49.930;8.606;2022-08-19T09:40:48;99811.53;;;27.04;51.07
21956;BME280;11142;49.930;8.606;2022-08-19T09:43:17;99810.94;;;27.90;48.63
21956;BME280;11142;49.930;8.606;2022-08-19T09:46:01;99804.28;;;28.31;47.50
21956;BME280;11142;49.930;8.606;2022-08-19T09:48:29;99800.19;;;27.21;50.04
21956;BME280;11142;49.930;8.606;2022-08-19T09:51:03;99805.88;;;26.61;51.95
21956;BME280;11142;49.930;8.606;2022-08-19T09:53:38;99801.78;;;26.58;51.38
21956;BME280;11142;49.930;8.606;2022-08-19T09:56:06;99802.13;;;27.01;50.34
21956;BME280;11142;49.930;8.606;2022-08-19T09:58:36;99794.09;;;27.14;49.62
21956;BME280;11142;49.930;8.606;2022-08-19T10:01:07;99799.41;;;27.21;49.80
21956;BME280;11142;49.930;8.606;2022-08-19T10:03:36;99800.97;;;26.58;51.67
21956;BME280;11142;49.930;8.606;2022-08-19T10:06:05;99807.97;;;27.29;50.06
21956;BME280;11142;49.930;8.606;2022-08-19T10:08:43;99808.69;;;29.05;45.25
21956;BME280;11142;49.930;8.606;2022-08-19T10:11:17;99803.44;;;28.30;45.02
21956;BME280;11142;49.930;8.606;2022-08-19T10:14:00;99806.66;;;28.39;46.28
21956;BME280;11142;49.930;8.606;2022-08-19T10:16:30;99815.13;;;28.05;46.12
21956;BME280;11142;49.930;8.606;2022-08-19T10:19:05;99814.75;;;28.93;44.33
21956;BME280;11142;49.930;8.606;2022-08-19T10:21:33;99808.63;;;30.53;40.51
21956;BME280;11142;49.930;8.606;2022-08-19T10:24:04;99813.41;;;32.28;37.19
21956;BME280;11142;49.930;8.606;2022-08-19T10:26:38;99814.78;;;31.69;38.38
21956;BME280;11142;49.930;8.606;2022-08-19T10:29:08;99811.03;;;29.49;41.96
21956;BME280;11142;49.930;8.606;2022-08-19T10:31:39;99807.97;;;28.05;45.61
21956;BME280;11142;49.930;8.606;2022-08-19T10:34:28;99810.78;;;29.50;41.99
21956;BME280;11142;49.930;8.606;2022-08-19T10:36:58;99805.56;;;28.71;43.83
21956;BME280;11142;49.930;8.606;2022-08-19T10:39:28;99807.75;;;29.47;42.43
21956;BME280;11142;49.930;8.606;2022-08-19T10:42:07;99815.31;;;31.99;37.34
21956;BME280;11142;49.930;8.606;2022-08-19T10:44:37;99815.34;;;30.68;38.97
21956;BME280;11142;49.930;8.606;2022-08-19T10:47:07;99805.53;;;30.27;40.38
21956;BME280;11142;49.930;8.606;2022-08-19T10:49:51;99809.56;;;32.24;35.50
21956;BME280;11142;49.930;8.606;2022-08-19T10:52:38;99805.34;;;33.70;32.31
21956;BME280;11142;49.930;8.606;2022-08-19T10:55:17;99795.44;;;32.67;34.47
21956;BME280;11142;49.930;8.606;2022-08-19T10:58:03;99801.97;;;31.31;35.46
21956;BME280;11142;49.930;8.606;2022-08-19T11:00:32;99792.47;;;29.18;39.03
21956;BME280;11142;49.930;8.606;2022-08-19T11:03:04;99781.28;;;29.09;39.59
21956;BME280;11142;49.930;8.606;2022-08-19T11:05:35;99784.69;;;32.00;35.48
21956;BME280;11142;49.930;8.606;2022-08-19T11:08:06;99788.28;;;34.59;30.35
21956;BME280;11142;49.930;8.606;2022-08-19T11:10:51;99795.69;;;36.72;27.39
21956;BME280;11142;49.930;8.606;2022-08-19T11:13:24;99780.03;;;31.62;33.90
21956;BME280;11142;49.930;8.606;2022-08-19T11:15:57;99779.78;;;31.35;34.05
21956;BME280;11142;49.930;8.606;2022-08-19T11:18:36;99764.41;;;31.31;34.83
21956;BME280;11142;49.930;8.606;2022-08-19T11:21:13;99764.88;;;36.63;27.13
21956;BME280;11142;49.930;8.606;2022-08-19T11:23:44;99771.38;;;36.57;27.07
21956;BME280;11142;49.930;8.606;2022-08-19T11:26:13;99760.84;;;33.13;31.95
21956;BME280;11142;49.930;8.606;2022-08-19T11:28:41;99755.69;;;32.90;31.72
21956;BME280;11142;49.930;8.606;2022-08-19T11:31:10;99738.22;;;33.63;31.97
21956;BME280;11142;49.930;8.606;2022-08-19T11:33:41;99725.69;;;34.57;30.36
21956;BME280;11142;49.930;8.606;2022-08-19T11:36:14;99734.06;;;32.42;33.48
21956;BME280;11142;49.930;8.606;2022-08-19T11:38:43;99726.69;;;31.66;34.93
21956;BME280;11142;49.930;8.606;2022-08-19T11:41:11;99748.16;;;34.26;31.01
21956;BME280;11142;49.930;8.606;2022-08-19T11:43:39;99749.53;;;31.68;34.77
21956;BME280;11142;49.930;8.606;2022-08-19T11:46:10;99736.72;;;31.42;35.31
21956;BME280;11142;49.930;8.606;2022-08-19T11:48:38;99754.97;;;31.00;35.19
21956;BME280;11142;49.930;8.606;2022-08-19T11:51:09;99746.66;;;30.50;35.82
21956;BME280;11142;49.930;8.606;2022-08-19T11:53:38;99734.28;;;30.02;36.54
21956;BME280;11142;49.930;8.606;2022-08-19T11:56:08;99733.56;;;30.07;36.23
21956;BME280;11142;49.930;8.606;2022-08-19T11:58:37;99738.28;;;29.70;37.55
21956;BME280;11142;49.930;8.606;2022-08-19T12:01:06;99728.91;;;31.52;34.55
21956;BME280;11142;49.930;8.606;2022-08-19T12:03:35;99743.75;;;33.51;30.04
21956;BME280;11142;49.930;8.606;2022-08-19T12:06:04;99732.06;;;32.54;31.26
21956;BME280;11142;49.930;8.606;2022-08-19T12:08:34;99735.50;;;34.68;27.70
21956;BME280;11142;49.930;8.606;2022-08-19T12:11:03;99728.56;;;33.40;30.15
21956;BME280;11142;49.930;8.606;2022-08-19T12:13:34;99723.38;;;30.16;35.88
21956;BME280;11142;49.930;8.606;2022-08-19T12:16:07;99718.88;;;32.69;32.03
21956;BME280;11142;49.930;8.606;2022-08-19T12:18:39;99743.34;;;35.67;27.57
21956;BME280;11142;49.930;8.606;2022-08-19T12:21:10;99720.53;;;32.53;31.85
21956;BME280;11142;49.930;8.606;2022-08-19T12:23:42;99713.75;;;31.63;33.45
21956;BME280;11142;49.930;8.606;2022-08-19T12:26:11;99719.44;;;34.05;29.35
21956;BME280;11142;49.930;8.606;2022-08-19T12:28:40;99718.06;;;32.90;30.91
21956;BME280;11142;49.930;8.606;2022-08-19T12:31:09;99716.22;;;33.18;30.08
21956;BME280;11142;49.930;8.606;2022-08-19T12:33:38;99717.28;;;35.06;28.00
21956;BME280;11142;49.930;8.606;2022-08-19T12:36:11;99708.31;;;34.33;27.47
21956;BME280;11142;49.930;8.606;2022-08-19T12:38:42;99718.06;;;32.69;29.65
21956;BME280;11142;49.930;8.606;2022-08-19T12:41:13;99714.81;;;33.10;29.46
21956;BME280;11142;49.930;8.606;2022-08-19T12:43:45;99720.09;;;35.61;25.77
21956;BME280;11142;49.930;8.606;2022-08-19T12:46:16;99713.16;;;34.83;26.89
21956;BME280;11142;49.930;8.606;2022-08-19T12:48:48;99715.75;;;34.16;27.78
21956;BME280;11142;49.930;8.606;2022-08-19T12:51:21;99713.47;;;34.97;26.82
21956;BME280;11142;49.930;8.606;2022-08-19T12:53:50;99717.25;;;38.23;23.35
21956;BME280;11142;49.930;8.606;2022-08-19T12:56:18;99727.44;;;36.86;23.85
21956;BME280;11142;49.930;8.606;2022-08-19T12:58:49;99726.03;;;36.19;22.95
21956;BME280;11142;49.930;8.606;2022-08-19T13:01:19;99707.00;;;34.98;24.77
21956;BME280;11142;49.930;8.606;2022-08-19T13:03:50;99716.66;;;33.95;25.96
21956;BME280;11142;49.930;8.606;2022-08-19T13:06:20;99705.69;;;30.78;31.69
21956;BME280;11142;49.930;8.606;2022-08-19T13:08:49;99709.72;;;29.94;31.87
21956;BME280;11142;49.930;8.606;2022-08-19T13:11:23;99713.44;;;30.63;32.66
21956;BME280;11142;49.930;8.606;2022-08-19T13:13:52;99719.66;;;29.64;32.74
21956;BME280;11142;49.930;8.606;2022-08-19T13:16:22;99707.75;;;29.48;33.34
21956;BME280;11142;49.930;8.606;2022-08-19T13:18:50;99717.41;;;30.14;32.72
21956;BME280;11142;49.930;8.606;2022-08-19T13:21:22;99725.13;;;32.36;30.35
21956;BME280;11142;49.930;8.606;2022-08-19T13:23:53;99734.53;;;34.48;27.44